Pagina principale
METAR-TAF:

METAR-TAF

Aeroporti :

Aeroporto militare Mario de Bernardi

Pratica Di Mare, Italia

latitudine: 41-39N, longitudine: 012-27E, altezza: 6 m

Osservazione

Il bollettino è stato emesso 21 minuti fa, alle 02:55 UTC
Vento 2 kt da ovest/nord-ovest
Temperature 12°C
Umidità 88%
Pressione 1024 hPa
Visibilità 10 km o più
Nuvoloso ad un'altezza di 2000 ft

METAR: LIRE 240255Z 29002KT 9999 BKN020 12/10 Q1024 RMK BKN VIS MIN 9999 WIND THR13 24002KT WIND THR31 27004KT WHT

Ora: 04:16 (03:16 UTC)

Previsione

Il bollettino è stato emesso 1 ora e 16 minuti fa, alle 02:00 UTC
Previsione valida dal 24 alle 03 UTC al 24 alle 12 UTC
Vento 5 kt da nord/nord-est
Visibilità 10 km o più
Nuvoloso ad un'altezza di 1800 ft
Probabilità 30% :
Temporaneamente
dal 24 alle 03 UTC al 24 alle 05 UTC
Visibilità: 5000 m
foschia

TAF: LIRE 240200Z 2403/2412 03005KT 9999 BKN018 PROB30 TEMPO 2403/2405 5000 BR

Osservazioni e previsioni meteorologiche di più di 4000 aeroporti (messaggi METAR e TAF).

Le stazioni disponibili sono rappresentate dai dischi gialli e rossi sulla carta.

Puntare il mouse per vedere il nome della stazione.

Clicca sopra per visualizzare le osservazioni e previsioni meteorologiche.

Per cambiare la mappa : fare clic sui pulsanti verdi con una croce nera per ingrandire, il pulsante verde con un trattino per diminuire, o sulla freccia verde per le mappe adiacenti.


METAR-TAF: